METAR stanice u blizini

 

LYBE - Beograd / Surčin, Srbija
Ažurirano: 23/09/2020 07:00
Vedro
Vedro
 Pravac vetra IJI
Vetar: IJI 9 km/h
Temperatura: 18°C
Tačka rose: 13°C
Vlažnost: 73%
Pritisak: 1012 hPa
Pregled: Vedro
Vidljivost: greater than 10 km
2020/09/23 05:00 LYBE 230500Z 12005KT CAVOK 18/13 Q1012 NOSIG
LYBT - Beograd / Batajnica, Srbija
Ažurirano: 23/09/2020 07:00
Vedro
Vedro
 Pravac vetra I
Vetar: I 6 km/h
Temperatura: 15°C
Tačka rose: 12°C
Vlažnost: 82%
Pritisak: 1011 hPa
Pregled: Vedro
Vidljivost: greater than 10 km
2020/09/23 05:00 LYBT 230500Z 09003KT 050V120 CAVOK 15/12 Q1011 NOSIG
LYVR - Vršac, Srbija
Ažurirano: 23/09/2020 07:00
Vedro
Vedro
 Pravac vetra JI
Vetar: JI 41 km/h
Temperatura: 21°C
Tačka rose: 7°C
Vlažnost: 40%
Pritisak: 1012 hPa
Pregled: Vedro
Vidljivost: greater than 10 km
2020/09/23 05:00 LYVR 230500Z 13022KT CAVOK 21/07 Q1012
 
LYKV - Lađevci, Srbija
Ažurirano: 23/09/2020 07:00
Few Clouds
Few Clouds
 Pravac vetra varies
Vetar: varies 2 km/h
Temperatura: 15°C
Tačka rose: 15°C
Vlažnost: 100%
Pritisak: 1014 hPa
Oblaci: Few Clouds
Vidljivost: 10 km
Cloud details: Few Clouds 1219 m
2020/09/23 05:00 LYKV 230500Z VRB01KT 9999 FEW040 15/15 Q1014 NOSIG
LYNI - Niš, Srbija
Ažurirano: 23/09/2020 07:00
Vedro
Vedro
 Pravac vetra I
Vetar: I 11 km/h
Temperatura: 18°C
Tačka rose: 10°C
Vlažnost: 60%
Pritisak: 1015 hPa
Pregled: Vedro
Vidljivost: greater than 10 km
2020/09/23 05:00 LYNI 230500Z 10006KT CAVOK 18/10 Q1015 NOSIG
BKPR - Priština, Srbija
Ažurirano: 23/09/2020 07:30
Mist, Pretežno oblačno
Mist, Pretežno oblačno
 Pravac vetra J
Vetar: J 7 km/h
Temperatura: 14°C
Tačka rose: 13°C
Vlažnost: 94%
Pritisak: 1017 hPa
Pregled: Mist
Oblaci: Mostly Cloudy
Vidljivost: 5 km
Cloud details: Partly Cloudy 457 m
Mostly Cloudy 1524 m
2020/09/23 05:30 BKPR 230530Z 18004KT 5000 BR SCT015 BKN050 14/13 Q1017 NOSIG
 
LHPP - Pecs / Pogany, Hungary
Ažurirano: 23/09/2020 06:45
Vedro
Vedro
 Pravac vetra SI
Vetar: SI 7 km/h
Temperatura: 13°C
Tačka rose: 12°C
Vlažnost: 94%
Pritisak: 1011 hPa
Pregled: Vedro
Vidljivost: greater than 10 km
2020/09/23 04:45 LHPP 230445Z 05004KT CAVOK 13/12 Q1011
LHUD - Szeged, Hungary
Ažurirano: 04/07/2019 01:45
NOT Current
Vedro
Vedro
 Pravac vetra S
Vetar: S 7 km/h
Temperatura: 18°C
Tačka rose: 13°C
Vlažnost: 73%
Pritisak: 1019 hPa
Pregled: Vedro
Vidljivost: greater than 10 km
2019/07/03 23:45 LHUD 032345Z 35004KT CAVOK 18/13 Q1019
LRTR - Timisoara, Romania
Ažurirano: 23/09/2020 07:00
Vedro
Vedro
 Pravac vetra I
Vetar: I 15 km/h
Temperatura: 16°C
Tačka rose: 10°C
Vlažnost: 68%
Pritisak: 1012 hPa
Pregled: Vedro
Vidljivost: greater than 10 km
2020/09/23 05:00 LRTR 230500Z 09008KT CAVOK 16/10 Q1012
 
LRCV - Craiova, Romania
Ažurirano: 23/09/2020 07:00
Vedro
Vedro
 Pravac vetra I
Vetar: I 17 km/h
Temperatura: 14°C
Tačka rose: 9°C
Vlažnost: 72%
Pritisak: 1015 hPa
Pregled: Vedro
Vidljivost: greater than 10 km
2020/09/23 05:00 LRCV 230500Z 08009KT CAVOK 14/09 Q1015
LBSF - Sofia, Bulgaria
Ažurirano: 23/09/2020 07:00
Vedro
Vedro
 Pravac vetra JI
Vetar: JI 9 km/h
Temperatura: 13°C
Tačka rose: 9°C
Vlažnost: 77%
Pritisak: 1018 hPa
Pregled: Vedro
Vidljivost: greater than 10 km
2020/09/23 05:00 LBSF 230500Z 13005KT CAVOK 13/09 Q1018 NOSIG
LWSK - Skoplje, Makedonija
Ažurirano: 23/09/2020 07:00
Mostly Cloudy
Mostly Cloudy
 Pravac vetra Z
Vetar: Z 2 km/h
Temperatura: 13°C
Tačka rose: 12°C
Vlažnost: 94%
Pritisak: 1018 hPa
Oblaci: Mostly Cloudy
Vidljivost: 10 km
Cloud details: Partly Cloudy 610 m
Mostly Cloudy 2438 m
2020/09/23 05:00 LWSK 230500Z 27001KT 9999 SCT020 BKN080 13/12 Q1018 NOSIG
 
LYPG - Podgorica, Crna Gora
Ažurirano: 23/09/2020 07:00
Mostly Cloudy
Mostly Cloudy
 Pravac vetra SSI
Vetar: SSI 7 km/h
Temperatura: 17°C
Tačka rose: 17°C
Vlažnost: 100%
Pritisak: 1015 hPa
Oblaci: Mostly Cloudy
Vidljivost: 10 km
Cloud details: Few Clouds 305 m
Partly Cloudy 792 m
Mostly Cloudy 2438 m
2020/09/23 05:00 LYPG 230500Z 03004KT 360V060 9999 FEW010 SCT026 BKN080 17/17 Q1015 NOSIG
LQSA - Sarajevo, Bosna i Hercegovina
Ažurirano: 23/09/2020 07:00
Mist, Pretežno oblačno
Mist, Pretežno oblačno
 Pravac vetra varies
Vetar: varies 2 km/h
Temperatura: 13°C
Tačka rose: 13°C
Vlažnost: 100%
Pritisak: 1014 hPa
Pregled: Mist
Oblaci: Mostly Cloudy
Vidljivost: 1 km
Cloud details: Few Clouds 30 m
Mostly Cloudy 152 m
2020/09/23 05:00 LQSA 230500Z VRB01KT 1200 R11/0500D BR FEW001 BKN005 13/13 Q1014 TEMPO 5000 RA SCT010
LDOS - Osijek, Hrvatksa
Ažurirano: 23/09/2020 07:00
Few Clouds
Few Clouds
 Pravac vetra JI
Vetar: JI 9 km/h
Temperatura: 15°C
Tačka rose: 13°C
Vlažnost: 88%
Pritisak: 1011 hPa
Oblaci: Few Clouds
Vidljivost: 10 km
Cloud details: Few Clouds 1372 m
2020/09/23 05:00 LDOS 230500Z 14005KT 9999 FEW045 15/13 Q1011